Terminal Aerodrome Forecast
Issued by NWS

Home | Current Version | Previous Version | Text Only | Print | Product List | Glossary On
Versions: 1 2 3 4 5 6 7 8 9 10 11 12
000
FTUS41 KBTV 262320
TAFSLK
TAF
KSLK 262320Z 2700/2724 22004KT P6SM SCT050 SCT200
     FM271300 22014G24KT P6SM SCT050 SCT200
     FM271600 23014G24KT P6SM VCSH BKN040 BKN150=

USA.gov is the U.S. government's official web portal to all federal, state and local government web resources and services.